sensor_id;sensor_type;location;lat;lon;timestamp;P1;durP1;ratioP1;P2;durP2;ratioP2
14776;SDS011;7480;43.124;25.686;2023-11-22T00:00:18;9.50;;;7.27;;
14776;SDS011;7480;43.124;25.686;2023-11-22T00:02:47;9.03;;;7.07;;
14776;SDS011;7480;43.124;25.686;2023-11-22T00:05:14;9.23;;;7.53;;
14776;SDS011;7480;43.124;25.686;2023-11-22T00:07:41;10.00;;;7.60;;
14776;SDS011;7480;43.124;25.686;2023-11-22T00:10:08;9.90;;;7.20;;
14776;SDS011;7480;43.124;25.686;2023-11-22T00:12:35;8.13;;;6.80;;
14776;SDS011;7480;43.124;25.686;2023-11-22T00:15:05;8.37;;;7.13;;
14776;SDS011;7480;43.124;25.686;2023-11-22T00:17:33;10.33;;;8.17;;
14776;SDS011;7480;43.124;25.686;2023-11-22T00:20:01;8.80;;;7.20;;
14776;SDS011;7480;43.124;25.686;2023-11-22T00:22:32;13.37;;;7.83;;
14776;SDS011;7480;43.124;25.686;2023-11-22T00:25:00;14.53;;;8.30;;
14776;SDS011;7480;43.124;25.686;2023-11-22T00:27:28;13.77;;;9.17;;
14776;SDS011;7480;43.124;25.686;2023-11-22T00:29:56;9.67;;;8.13;;
14776;SDS011;7480;43.124;25.686;2023-11-22T00:32:25;10.80;;;7.53;;
14776;SDS011;7480;43.124;25.686;2023-11-22T00:34:52;11.83;;;8.40;;
14776;SDS011;7480;43.124;25.686;2023-11-22T00:37:19;9.93;;;7.53;;
14776;SDS011;7480;43.124;25.686;2023-11-22T00:39:46;9.47;;;7.30;;
14776;SDS011;7480;43.124;25.686;2023-11-22T00:42:13;10.80;;;7.63;;
14776;SDS011;7480;43.124;25.686;2023-11-22T00:44:40;9.93;;;7.90;;
14776;SDS011;7480;43.124;25.686;2023-11-22T00:47:06;10.90;;;7.53;;
14776;SDS011;7480;43.124;25.686;2023-11-22T00:49:33;8.37;;;7.23;;
14776;SDS011;7480;43.124;25.686;2023-11-22T00:52:00;10.17;;;7.77;;
14776;SDS011;7480;43.124;25.686;2023-11-22T00:54:29;10.80;;;7.93;;
14776;SDS011;7480;43.124;25.686;2023-11-22T00:56:56;10.93;;;7.10;;
14776;SDS011;7480;43.124;25.686;2023-11-22T00:59:23;9.17;;;7.03;;
14776;SDS011;7480;43.124;25.686;2023-11-22T01:01:49;9.93;;;7.13;;
14776;SDS011;7480;43.124;25.686;2023-11-22T01:04:16;11.40;;;7.77;;
14776;SDS011;7480;43.124;25.686;2023-11-22T01:06:43;9.93;;;7.03;;
14776;SDS011;7480;43.124;25.686;2023-11-22T01:09:10;12.17;;;7.67;;
14776;SDS011;7480;43.124;25.686;2023-11-22T01:11:40;9.60;;;6.70;;
14776;SDS011;7480;43.124;25.686;2023-11-22T01:14:07;9.23;;;7.00;;
14776;SDS011;7480;43.124;25.686;2023-11-22T01:16:34;9.47;;;7.03;;
14776;SDS011;7480;43.124;25.686;2023-11-22T01:19:03;10.23;;;6.70;;
14776;SDS011;7480;43.124;25.686;2023-11-22T01:21:30;11.00;;;6.83;;
14776;SDS011;7480;43.124;25.686;2023-11-22T01:23:57;10.00;;;7.27;;
14776;SDS011;7480;43.124;25.686;2023-11-22T01:26:25;12.17;;;8.50;;
14776;SDS011;7480;43.124;25.686;2023-11-22T01:28:52;10.27;;;7.57;;
14776;SDS011;7480;43.124;25.686;2023-11-22T01:31:18;9.07;;;6.93;;
14776;SDS011;7480;43.124;25.686;2023-11-22T01:33:49;9.60;;;6.87;;
14776;SDS011;7480;43.124;25.686;2023-11-22T01:36:15;9.57;;;6.83;;
14776;SDS011;7480;43.124;25.686;2023-11-22T01:38:42;9.53;;;6.93;;
14776;SDS011;7480;43.124;25.686;2023-11-22T01:41:10;9.47;;;6.60;;
14776;SDS011;7480;43.124;25.686;2023-11-22T01:43:39;10.47;;;6.40;;
14776;SDS011;7480;43.124;25.686;2023-11-22T01:46:14;10.73;;;7.60;;
14776;SDS011;7480;43.124;25.686;2023-11-22T01:48:52;10.60;;;6.57;;
14776;SDS011;7480;43.124;25.686;2023-11-22T01:51:20;10.70;;;6.83;;
14776;SDS011;7480;43.124;25.686;2023-11-22T01:53:48;10.67;;;6.90;;
14776;SDS011;7480;43.124;25.686;2023-11-22T01:56:16;9.23;;;6.67;;
14776;SDS011;7480;43.124;25.686;2023-11-22T01:58:43;9.23;;;6.80;;
14776;SDS011;7480;43.124;25.686;2023-11-22T02:01:10;9.93;;;7.53;;
14776;SDS011;7480;43.124;25.686;2023-11-22T02:03:38;9.83;;;7.03;;
14776;SDS011;7480;43.124;25.686;2023-11-22T02:06:06;10.73;;;6.93;;
14776;SDS011;7480;43.124;25.686;2023-11-22T02:08:33;16.07;;;8.23;;
14776;SDS011;7480;43.124;25.686;2023-11-22T02:11:01;8.47;;;6.63;;
14776;SDS011;7480;43.124;25.686;2023-11-22T02:13:31;11.70;;;7.50;;
14776;SDS011;7480;43.124;25.686;2023-11-22T02:16:01;8.83;;;6.97;;
14776;SDS011;7480;43.124;25.686;2023-11-22T02:18:29;9.57;;;6.70;;
14776;SDS011;7480;43.124;25.686;2023-11-22T02:20:56;11.87;;;7.10;;
14776;SDS011;7480;43.124;25.686;2023-11-22T02:23:23;11.07;;;6.97;;
14776;SDS011;7480;43.124;25.686;2023-11-22T02:25:50;9.47;;;7.40;;
14776;SDS011;7480;43.124;25.686;2023-11-22T02:28:17;10.20;;;7.07;;
14776;SDS011;7480;43.124;25.686;2023-11-22T02:30:43;8.50;;;6.27;;
14776;SDS011;7480;43.124;25.686;2023-11-22T02:33:10;8.53;;;6.30;;
14776;SDS011;7480;43.124;25.686;2023-11-22T02:35:37;12.43;;;6.63;;
14776;SDS011;7480;43.124;25.686;2023-11-22T02:38:04;8.93;;;6.33;;
14776;SDS011;7480;43.124;25.686;2023-11-22T02:40:31;10.90;;;6.50;;
14776;SDS011;7480;43.124;25.686;2023-11-22T02:42:58;9.40;;;6.50;;
14776;SDS011;7480;43.124;25.686;2023-11-22T02:45:31;9.87;;;6.80;;
14776;SDS011;7480;43.124;25.686;2023-11-22T02:47:59;10.40;;;6.93;;
14776;SDS011;7480;43.124;25.686;2023-11-22T02:50:28;11.57;;;7.07;;
14776;SDS011;7480;43.124;25.686;2023-11-22T02:52:55;9.53;;;6.17;;
14776;SDS011;7480;43.124;25.686;2023-11-22T02:55:22;11.90;;;6.43;;
14776;SDS011;7480;43.124;25.686;2023-11-22T02:57:48;8.13;;;6.43;;
14776;SDS011;7480;43.124;25.686;2023-11-22T03:00:15;12.40;;;6.93;;
14776;SDS011;7480;43.124;25.686;2023-11-22T03:02:42;9.83;;;6.53;;
14776;SDS011;7480;43.124;25.686;2023-11-22T03:05:09;10.43;;;7.07;;
14776;SDS011;7480;43.124;25.686;2023-11-22T03:07:37;11.57;;;7.37;;
14776;SDS011;7480;43.124;25.686;2023-11-22T03:10:04;14.10;;;7.33;;
14776;SDS011;7480;43.124;25.686;2023-11-22T03:12:34;11.77;;;7.90;;
14776;SDS011;7480;43.124;25.686;2023-11-22T03:15:01;9.13;;;6.90;;
14776;SDS011;7480;43.124;25.686;2023-11-22T03:17:28;13.70;;;7.33;;
14776;SDS011;7480;43.124;25.686;2023-11-22T03:19:55;10.13;;;7.20;;
14776;SDS011;7480;43.124;25.686;2023-11-22T03:22:23;10.43;;;6.77;;
14776;SDS011;7480;43.124;25.686;2023-11-22T03:24:51;10.90;;;6.53;;
14776;SDS011;7480;43.124;25.686;2023-11-22T03:27:19;11.13;;;7.60;;
14776;SDS011;7480;43.124;25.686;2023-11-22T03:29:48;12.33;;;8.07;;
14776;SDS011;7480;43.124;25.686;2023-11-22T03:32:15;11.50;;;7.27;;
14776;SDS011;7480;43.124;25.686;2023-11-22T03:34:42;11.27;;;8.10;;
14776;SDS011;7480;43.124;25.686;2023-11-22T03:37:09;13.47;;;8.67;;
14776;SDS011;7480;43.124;25.686;2023-11-22T03:39:36;13.33;;;9.13;;
14776;SDS011;7480;43.124;25.686;2023-11-22T03:42:03;10.93;;;7.67;;
14776;SDS011;7480;43.124;25.686;2023-11-22T03:44:30;12.60;;;8.30;;
14776;SDS011;7480;43.124;25.686;2023-11-22T03:46:57;11.93;;;7.70;;
14776;SDS011;7480;43.124;25.686;2023-11-22T03:49:24;12.00;;;7.63;;
14776;SDS011;7480;43.124;25.686;2023-11-22T03:51:51;10.73;;;7.00;;
14776;SDS011;7480;43.124;25.686;2023-11-22T03:54:17;9.47;;;6.77;;
14776;SDS011;7480;43.124;25.686;2023-11-22T03:56:45;12.53;;;7.37;;
14776;SDS011;7480;43.124;25.686;2023-11-22T03:59:11;10.97;;;6.63;;
14776;SDS011;7480;43.124;25.686;2023-11-22T04:01:39;11.80;;;6.60;;
14776;SDS011;7480;43.124;25.686;2023-11-22T04:04:05;11.03;;;6.43;;
14776;SDS011;7480;43.124;25.686;2023-11-22T04:06:32;10.37;;;6.53;;
14776;SDS011;7480;43.124;25.686;2023-11-22T04:08:59;9.73;;;6.67;;
14776;SDS011;7480;43.124;25.686;2023-11-22T04:11:28;10.37;;;6.77;;
14776;SDS011;7480;43.124;25.686;2023-11-22T04:13:55;11.40;;;6.77;;
14776;SDS011;7480;43.124;25.686;2023-11-22T04:16:22;13.30;;;7.77;;
14776;SDS011;7480;43.124;25.686;2023-11-22T04:18:49;14.00;;;7.67;;
14776;SDS011;7480;43.124;25.686;2023-11-22T04:21:16;10.90;;;7.20;;
14776;SDS011;7480;43.124;25.686;2023-11-22T04:23:43;11.33;;;7.00;;
14776;SDS011;7480;43.124;25.686;2023-11-22T04:26:11;11.77;;;7.40;;
14776;SDS011;7480;43.124;25.686;2023-11-22T04:28:37;10.20;;;7.57;;
14776;SDS011;7480;43.124;25.686;2023-11-22T04:31:04;10.93;;;7.47;;
14776;SDS011;7480;43.124;25.686;2023-11-22T04:33:31;14.67;;;7.40;;
14776;SDS011;7480;43.124;25.686;2023-11-22T04:35:58;11.60;;;8.33;;
14776;SDS011;7480;43.124;25.686;2023-11-22T04:38:25;12.77;;;8.37;;
14776;SDS011;7480;43.124;25.686;2023-11-22T04:40:58;12.50;;;8.02;;
14776;SDS011;7480;43.124;25.686;2023-11-22T04:43:25;10.77;;;7.50;;
14776;SDS011;7480;43.124;25.686;2023-11-22T04:45:53;10.60;;;7.77;;
14776;SDS011;7480;43.124;25.686;2023-11-22T04:48:19;11.80;;;7.60;;
14776;SDS011;7480;43.124;25.686;2023-11-22T04:50:46;12.23;;;7.73;;
14776;SDS011;7480;43.124;25.686;2023-11-22T04:53:14;11.27;;;7.70;;
14776;SDS011;7480;43.124;25.686;2023-11-22T04:55:41;16.47;;;8.10;;
14776;SDS011;7480;43.124;25.686;2023-11-22T04:58:08;12.97;;;9.67;;
14776;SDS011;7480;43.124;25.686;2023-11-22T05:00:34;14.33;;;9.13;;
14776;SDS011;7480;43.124;25.686;2023-11-22T05:03:01;12.63;;;8.37;;
14776;SDS011;7480;43.124;25.686;2023-11-22T05:05:28;15.80;;;9.63;;
14776;SDS011;7480;43.124;25.686;2023-11-22T05:07:55;15.43;;;9.73;;
14776;SDS011;7480;43.124;25.686;2023-11-22T05:10:22;11.87;;;9.20;;
14776;SDS011;7480;43.124;25.686;2023-11-22T05:12:49;21.77;;;10.53;;
14776;SDS011;7480;43.124;25.686;2023-11-22T05:15:15;15.97;;;9.67;;
14776;SDS011;7480;43.124;25.686;2023-11-22T05:17:42;16.20;;;9.50;;
14776;SDS011;7480;43.124;25.686;2023-11-22T05:20:09;13.63;;;8.70;;
14776;SDS011;7480;43.124;25.686;2023-11-22T05:22:36;14.00;;;9.03;;
14776;SDS011;7480;43.124;25.686;2023-11-22T05:25:04;12.63;;;9.17;;
14776;SDS011;7480;43.124;25.686;2023-11-22T05:27:33;14.37;;;9.23;;
14776;SDS011;7480;43.124;25.686;2023-11-22T05:30:00;13.50;;;8.10;;
14776;SDS011;7480;43.124;25.686;2023-11-22T05:32:28;12.60;;;7.93;;
14776;SDS011;7480;43.124;25.686;2023-11-22T05:34:57;16.63;;;9.93;;
14776;SDS011;7480;43.124;25.686;2023-11-22T05:37:24;16.97;;;9.93;;
14776;SDS011;7480;43.124;25.686;2023-11-22T05:39:52;15.43;;;10.63;;
14776;SDS011;7480;43.124;25.686;2023-11-22T05:42:19;15.97;;;10.50;;
14776;SDS011;7480;43.124;25.686;2023-11-22T05:44:46;15.20;;;10.23;;
14776;SDS011;7480;43.124;25.686;2023-11-22T05:47:13;18.43;;;10.80;;
14776;SDS011;7480;43.124;25.686;2023-11-22T05:49:40;18.70;;;12.13;;
14776;SDS011;7480;43.124;25.686;2023-11-22T05:52:06;18.50;;;11.63;;
14776;SDS011;7480;43.124;25.686;2023-11-22T05:54:33;19.63;;;11.30;;
14776;SDS011;7480;43.124;25.686;2023-11-22T05:57:00;21.63;;;11.53;;
14776;SDS011;7480;43.124;25.686;2023-11-22T05:59:27;22.23;;;11.87;;
14776;SDS011;7480;43.124;25.686;2023-11-22T06:01:54;18.50;;;10.57;;
14776;SDS011;7480;43.124;25.686;2023-11-22T06:04:20;17.70;;;10.87;;
14776;SDS011;7480;43.124;25.686;2023-11-22T06:06:47;21.43;;;12.07;;
14776;SDS011;7480;43.124;25.686;2023-11-22T06:09:14;16.67;;;11.90;;
14776;SDS011;7480;43.124;25.686;2023-11-22T06:11:41;20.90;;;12.67;;
14776;SDS011;7480;43.124;25.686;2023-11-22T06:14:08;20.13;;;11.53;;
14776;SDS011;7480;43.124;25.686;2023-11-22T06:16:35;23.40;;;13.83;;
14776;SDS011;7480;43.124;25.686;2023-11-22T06:19:02;21.47;;;13.67;;
14776;SDS011;7480;43.124;25.686;2023-11-22T06:21:29;26.33;;;15.53;;
14776;SDS011;7480;43.124;25.686;2023-11-22T06:23:56;25.60;;;15.90;;
14776;SDS011;7480;43.124;25.686;2023-11-22T06:26:25;26.97;;;14.60;;
14776;SDS011;7480;43.124;25.686;2023-11-22T06:28:52;29.37;;;16.93;;
14776;SDS011;7480;43.124;25.686;2023-11-22T06:31:19;23.93;;;16.70;;
14776;SDS011;7480;43.124;25.686;2023-11-22T06:33:45;34.93;;;19.53;;
14776;SDS011;7480;43.124;25.686;2023-11-22T06:36:12;31.77;;;20.03;;
14776;SDS011;7480;43.124;25.686;2023-11-22T06:38:41;31.58;;;21.98;;
14776;SDS011;7480;43.124;25.686;2023-11-22T06:41:08;34.33;;;21.43;;
14776;SDS011;7480;43.124;25.686;2023-11-22T06:43:35;27.97;;;16.87;;
14776;SDS011;7480;43.124;25.686;2023-11-22T06:46:02;22.70;;;16.40;;
14776;SDS011;7480;43.124;25.686;2023-11-22T06:48:32;22.10;;;15.40;;
14776;SDS011;7480;43.124;25.686;2023-11-22T06:51:00;25.33;;;14.37;;
14776;SDS011;7480;43.124;25.686;2023-11-22T06:53:27;21.97;;;12.93;;
14776;SDS011;7480;43.124;25.686;2023-11-22T06:55:54;21.37;;;11.57;;
14776;SDS011;7480;43.124;25.686;2023-11-22T06:58:21;17.37;;;11.63;;
14776;SDS011;7480;43.124;25.686;2023-11-22T07:00:48;16.77;;;11.50;;
14776;SDS011;7480;43.124;25.686;2023-11-22T07:03:15;15.97;;;10.70;;
14776;SDS011;7480;43.124;25.686;2023-11-22T07:05:43;17.07;;;11.50;;
14776;SDS011;7480;43.124;25.686;2023-11-22T07:08:10;20.27;;;12.30;;
14776;SDS011;7480;43.124;25.686;2023-11-22T07:10:43;16.90;;;11.47;;
14776;SDS011;7480;43.124;25.686;2023-11-22T07:13:11;16.17;;;11.20;;
14776;SDS011;7480;43.124;25.686;2023-11-22T07:15:39;17.13;;;11.67;;
14776;SDS011;7480;43.124;25.686;2023-11-22T07:18:07;17.17;;;11.00;;
14776;SDS011;7480;43.124;25.686;2023-11-22T07:20:36;32.47;;;17.60;;
14776;SDS011;7480;43.124;25.686;2023-11-22T07:23:03;43.00;;;21.60;;
14776;SDS011;7480;43.124;25.686;2023-11-22T07:25:31;22.83;;;13.57;;
14776;SDS011;7480;43.124;25.686;2023-11-22T07:27:58;18.60;;;12.07;;
14776;SDS011;7480;43.124;25.686;2023-11-22T07:30:26;17.27;;;11.60;;
14776;SDS011;7480;43.124;25.686;2023-11-22T07:32:56;16.20;;;11.00;;
14776;SDS011;7480;43.124;25.686;2023-11-22T07:35:26;21.47;;;12.53;;
14776;SDS011;7480;43.124;25.686;2023-11-22T07:37:55;21.07;;;12.83;;
14776;SDS011;7480;43.124;25.686;2023-11-22T07:40:21;20.87;;;13.40;;
14776;SDS011;7480;43.124;25.686;2023-11-22T07:42:49;21.23;;;13.47;;
14776;SDS011;7480;43.124;25.686;2023-11-22T07:45:15;20.07;;;13.10;;
14776;SDS011;7480;43.124;25.686;2023-11-22T07:47:43;20.27;;;14.57;;
14776;SDS011;7480;43.124;25.686;2023-11-22T07:50:11;27.57;;;15.53;;
14776;SDS011;7480;43.124;25.686;2023-11-22T07:52:38;23.03;;;14.80;;
14776;SDS011;7480;43.124;25.686;2023-11-22T07:55:07;24.20;;;14.90;;
14776;SDS011;7480;43.124;25.686;2023-11-22T07:57:34;21.70;;;13.73;;
14776;SDS011;7480;43.124;25.686;2023-11-22T08:00:01;24.37;;;14.40;;
14776;SDS011;7480;43.124;25.686;2023-11-22T08:02:31;25.07;;;14.90;;
14776;SDS011;7480;43.124;25.686;2023-11-22T08:04:59;26.53;;;16.30;;
14776;SDS011;7480;43.124;25.686;2023-11-22T08:07:29;27.40;;;16.63;;
14776;SDS011;7480;43.124;25.686;2023-11-22T08:09:56;23.77;;;15.43;;
14776;SDS011;7480;43.124;25.686;2023-11-22T08:12:23;25.13;;;15.87;;
14776;SDS011;7480;43.124;25.686;2023-11-22T08:14:50;22.17;;;15.43;;
14776;SDS011;7480;43.124;25.686;2023-11-22T08:17:18;28.63;;;17.07;;
14776;SDS011;7480;43.124;25.686;2023-11-22T08:19:46;25.30;;;15.43;;
14776;SDS011;7480;43.124;25.686;2023-11-22T08:22:14;24.00;;;16.30;;
14776;SDS011;7480;43.124;25.686;2023-11-22T08:24:41;28.67;;;17.23;;
14776;SDS011;7480;43.124;25.686;2023-11-22T08:27:08;26.23;;;16.73;;
14776;SDS011;7480;43.124;25.686;2023-11-22T08:29:34;29.10;;;17.00;;
14776;SDS011;7480;43.124;25.686;2023-11-22T08:32:01;23.87;;;14.47;;
14776;SDS011;7480;43.124;25.686;2023-11-22T08:34:28;25.67;;;16.13;;
14776;SDS011;7480;43.124;25.686;2023-11-22T08:36:55;23.50;;;16.37;;
14776;SDS011;7480;43.124;25.686;2023-11-22T08:39:24;28.13;;;17.17;;
14776;SDS011;7480;43.124;25.686;2023-11-22T08:41:50;28.30;;;17.90;;
14776;SDS011;7480;43.124;25.686;2023-11-22T08:44:17;27.57;;;16.93;;
14776;SDS011;7480;43.124;25.686;2023-11-22T08:46:45;24.47;;;16.30;;
14776;SDS011;7480;43.124;25.686;2023-11-22T08:49:13;24.90;;;16.33;;
14776;SDS011;7480;43.124;25.686;2023-11-22T08:51:41;27.20;;;17.60;;
14776;SDS011;7480;43.124;25.686;2023-11-22T08:54:09;29.13;;;17.63;;
14776;SDS011;7480;43.124;25.686;2023-11-22T08:56:37;28.40;;;17.75;;
14776;SDS011;7480;43.124;25.686;2023-11-22T08:59:05;26.27;;;17.13;;
14776;SDS011;7480;43.124;25.686;2023-11-22T09:01:32;29.53;;;18.47;;
14776;SDS011;7480;43.124;25.686;2023-11-22T09:03:58;28.27;;;17.40;;
14776;SDS011;7480;43.124;25.686;2023-11-22T09:06:25;30.87;;;18.03;;
14776;SDS011;7480;43.124;25.686;2023-11-22T09:08:52;29.17;;;17.37;;
14776;SDS011;7480;43.124;25.686;2023-11-22T09:11:19;27.60;;;18.33;;
14776;SDS011;7480;43.124;25.686;2023-11-22T09:13:48;24.10;;;16.50;;
14776;SDS011;7480;43.124;25.686;2023-11-22T09:16:16;36.90;;;19.50;;
14776;SDS011;7480;43.124;25.686;2023-11-22T09:18:46;29.43;;;18.57;;
14776;SDS011;7480;43.124;25.686;2023-11-22T09:21:13;35.07;;;20.63;;
14776;SDS011;7480;43.124;25.686;2023-11-22T09:23:43;30.40;;;18.93;;
14776;SDS011;7480;43.124;25.686;2023-11-22T09:26:10;34.03;;;19.80;;
14776;SDS011;7480;43.124;25.686;2023-11-22T09:28:37;33.20;;;19.37;;
14776;SDS011;7480;43.124;25.686;2023-11-22T09:31:04;33.03;;;20.23;;
14776;SDS011;7480;43.124;25.686;2023-11-22T09:33:33;38.80;;;22.03;;
14776;SDS011;7480;43.124;25.686;2023-11-22T09:36:00;31.03;;;19.03;;
14776;SDS011;7480;43.124;25.686;2023-11-22T09:38:32;33.23;;;20.23;;
14776;SDS011;7480;43.124;25.686;2023-11-22T09:40:58;31.03;;;20.10;;
14776;SDS011;7480;43.124;25.686;2023-11-22T09:43:26;35.70;;;22.30;;
14776;SDS011;7480;43.124;25.686;2023-11-22T09:45:55;35.87;;;21.83;;
14776;SDS011;7480;43.124;25.686;2023-11-22T09:48:24;33.93;;;21.70;;
14776;SDS011;7480;43.124;25.686;2023-11-22T09:53:40;34.53;;;20.93;;
14776;SDS011;7480;43.124;25.686;2023-11-22T09:56:11;33.80;;;21.30;;
14776;SDS011;7480;43.124;25.686;2023-11-22T09:58:42;31.63;;;19.37;;
14776;SDS011;7480;43.124;25.686;2023-11-22T10:01:11;33.53;;;20.30;;
14776;SDS011;7480;43.124;25.686;2023-11-22T10:03:40;29.70;;;18.60;;
14776;SDS011;7480;43.124;25.686;2023-11-22T10:06:07;33.07;;;19.17;;
14776;SDS011;7480;43.124;25.686;2023-11-22T10:08:34;38.70;;;21.23;;
14776;SDS011;7480;43.124;25.686;2023-11-22T10:11:03;33.43;;;20.50;;
14776;SDS011;7480;43.124;25.686;2023-11-22T10:13:30;42.30;;;23.50;;
14776;SDS011;7480;43.124;25.686;2023-11-22T10:15:59;37.87;;;21.07;;
14776;SDS011;7480;43.124;25.686;2023-11-22T10:18:39;35.53;;;20.67;;
14776;SDS011;7480;43.124;25.686;2023-11-22T10:23:47;40.93;;;23.03;;
14776;SDS011;7480;43.124;25.686;2023-11-22T10:26:14;39.97;;;20.77;;
14776;SDS011;7480;43.124;25.686;2023-11-22T10:28:44;40.93;;;22.17;;
14776;SDS011;7480;43.124;25.686;2023-11-22T10:31:11;40.00;;;21.23;;
14776;SDS011;7480;43.124;25.686;2023-11-22T10:33:42;38.50;;;21.80;;
14776;SDS011;7480;43.124;25.686;2023-11-22T10:36:09;32.10;;;19.67;;
14776;SDS011;7480;43.124;25.686;2023-11-22T10:38:36;33.53;;;18.73;;
14776;SDS011;7480;43.124;25.686;2023-11-22T10:41:03;32.63;;;19.90;;
14776;SDS011;7480;43.124;25.686;2023-11-22T10:43:31;35.40;;;20.43;;
14776;SDS011;7480;43.124;25.686;2023-11-22T10:46:01;34.70;;;19.43;;
14776;SDS011;7480;43.124;25.686;2023-11-22T10:48:29;35.83;;;20.17;;
14776;SDS011;7480;43.124;25.686;2023-11-22T10:50:57;33.17;;;19.17;;
14776;SDS011;7480;43.124;25.686;2023-11-22T10:53:30;36.00;;;20.47;;
14776;SDS011;7480;43.124;25.686;2023-11-22T10:56:05;33.13;;;18.27;;
14776;SDS011;7480;43.124;25.686;2023-11-22T10:58:56;33.03;;;18.77;;
14776;SDS011;7480;43.124;25.686;2023-11-22T11:01:24;36.50;;;20.30;;
14776;SDS011;7480;43.124;25.686;2023-11-22T11:04:06;35.67;;;19.33;;
14776;SDS011;7480;43.124;25.686;2023-11-22T11:06:37;36.20;;;19.30;;
14776;SDS011;7480;43.124;25.686;2023-11-22T11:09:04;34.43;;;19.80;;
14776;SDS011;7480;43.124;25.686;2023-11-22T11:11:34;35.40;;;19.67;;
14776;SDS011;7480;43.124;25.686;2023-11-22T11:14:01;36.43;;;20.00;;
14776;SDS011;7480;43.124;25.686;2023-11-22T11:16:33;32.37;;;19.40;;
14776;SDS011;7480;43.124;25.686;2023-11-22T11:19:04;32.83;;;19.87;;
14776;SDS011;7480;43.124;25.686;2023-11-22T11:21:32;35.40;;;20.23;;
14776;SDS011;7480;43.124;25.686;2023-11-22T11:23:59;38.33;;;20.93;;
14776;SDS011;7480;43.124;25.686;2023-11-22T11:26:31;40.00;;;21.67;;
14776;SDS011;7480;43.124;25.686;2023-11-22T11:28:59;37.50;;;20.83;;
14776;SDS011;7480;43.124;25.686;2023-11-22T11:31:30;37.73;;;20.73;;
14776;SDS011;7480;43.124;25.686;2023-11-22T11:34:02;39.80;;;22.37;;
14776;SDS011;7480;43.124;25.686;2023-11-22T11:36:36;37.73;;;21.00;;
14776;SDS011;7480;43.124;25.686;2023-11-22T11:39:07;34.30;;;20.13;;
14776;SDS011;7480;43.124;25.686;2023-11-22T11:41:41;39.87;;;20.50;;
14776;SDS011;7480;43.124;25.686;2023-11-22T11:44:09;33.60;;;19.33;;
14776;SDS011;7480;43.124;25.686;2023-11-22T11:46:37;36.97;;;19.57;;
14776;SDS011;7480;43.124;25.686;2023-11-22T11:49:08;38.20;;;21.23;;
14776;SDS011;7480;43.124;25.686;2023-11-22T11:51:37;42.80;;;22.20;;
14776;SDS011;7480;43.124;25.686;2023-11-22T11:54:04;36.43;;;20.67;;
14776;SDS011;7480;43.124;25.686;2023-11-22T11:56:32;35.80;;;20.77;;
14776;SDS011;7480;43.124;25.686;2023-11-22T11:59:00;33.77;;;19.10;;
14776;SDS011;7480;43.124;25.686;2023-11-22T12:01:28;34.63;;;20.07;;
14776;SDS011;7480;43.124;25.686;2023-11-22T12:04:01;32.37;;;19.30;;
14776;SDS011;7480;43.124;25.686;2023-11-22T12:06:29;27.70;;;17.13;;
14776;SDS011;7480;43.124;25.686;2023-11-22T12:09:00;26.63;;;16.00;;
14776;SDS011;7480;43.124;25.686;2023-11-22T12:11:27;27.07;;;16.70;;
14776;SDS011;7480;43.124;25.686;2023-11-22T12:13:56;23.87;;;15.23;;
14776;SDS011;7480;43.124;25.686;2023-11-22T12:16:25;26.33;;;15.37;;
14776;SDS011;7480;43.124;25.686;2023-11-22T12:18:53;26.57;;;15.03;;
14776;SDS011;7480;43.124;25.686;2023-11-22T12:21:20;24.27;;;15.30;;
14776;SDS011;7480;43.124;25.686;2023-11-22T12:23:47;26.10;;;15.97;;
14776;SDS011;7480;43.124;25.686;2023-11-22T12:26:16;26.03;;;14.90;;
14776;SDS011;7480;43.124;25.686;2023-11-22T12:28:45;27.47;;;16.00;;
14776;SDS011;7480;43.124;25.686;2023-11-22T12:31:26;22.83;;;14.67;;
14776;SDS011;7480;43.124;25.686;2023-11-22T12:33:56;24.37;;;14.67;;
14776;SDS011;7480;43.124;25.686;2023-11-22T12:36:23;26.33;;;14.47;;
14776;SDS011;7480;43.124;25.686;2023-11-22T12:38:50;27.37;;;15.10;;
14776;SDS011;7480;43.124;25.686;2023-11-22T12:41:16;24.37;;;13.87;;
14776;SDS011;7480;43.124;25.686;2023-11-22T12:43:44;21.13;;;14.10;;
14776;SDS011;7480;43.124;25.686;2023-11-22T12:46:28;22.80;;;13.43;;
14776;SDS011;7480;43.124;25.686;2023-11-22T12:49:04;25.37;;;13.70;;
14776;SDS011;7480;43.124;25.686;2023-11-22T12:51:32;21.37;;;12.27;;
14776;SDS011;7480;43.124;25.686;2023-11-22T12:53:59;21.60;;;13.13;;
14776;SDS011;7480;43.124;25.686;2023-11-22T12:56:25;25.70;;;14.53;;
14776;SDS011;7480;43.124;25.686;2023-11-22T12:58:54;26.70;;;14.17;;
14776;SDS011;7480;43.124;25.686;2023-11-22T13:01:21;24.77;;;14.43;;
14776;SDS011;7480;43.124;25.686;2023-11-22T13:03:48;23.27;;;14.23;;
14776;SDS011;7480;43.124;25.686;2023-11-22T13:06:16;20.63;;;12.07;;
14776;SDS011;7480;43.124;25.686;2023-11-22T13:08:44;24.80;;;14.57;;
14776;SDS011;7480;43.124;25.686;2023-11-22T13:11:11;23.93;;;14.00;;
14776;SDS011;7480;43.124;25.686;2023-11-22T13:13:37;30.93;;;16.67;;
14776;SDS011;7480;43.124;25.686;2023-11-22T13:16:05;30.07;;;15.40;;
14776;SDS011;7480;43.124;25.686;2023-11-22T13:18:32;28.00;;;15.10;;
14776;SDS011;7480;43.124;25.686;2023-11-22T13:20:58;28.47;;;16.23;;
14776;SDS011;7480;43.124;25.686;2023-11-22T13:23:26;38.53;;;17.67;;
14776;SDS011;7480;43.124;25.686;2023-11-22T13:25:52;26.13;;;15.90;;
14776;SDS011;7480;43.124;25.686;2023-11-22T13:28:19;25.67;;;14.53;;
14776;SDS011;7480;43.124;25.686;2023-11-22T13:30:46;27.00;;;14.73;;
14776;SDS011;7480;43.124;25.686;2023-11-22T13:33:15;28.03;;;14.67;;
14776;SDS011;7480;43.124;25.686;2023-11-22T13:35:42;29.07;;;15.27;;
14776;SDS011;7480;43.124;25.686;2023-11-22T13:38:10;26.87;;;14.27;;
14776;SDS011;7480;43.124;25.686;2023-11-22T13:40:38;25.00;;;14.00;;
14776;SDS011;7480;43.124;25.686;2023-11-22T13:43:12;22.83;;;13.40;;
14776;SDS011;7480;43.124;25.686;2023-11-22T13:45:39;24.83;;;14.10;;
14776;SDS011;7480;43.124;25.686;2023-11-22T13:48:08;23.83;;;14.23;;
14776;SDS011;7480;43.124;25.686;2023-11-22T13:50:36;25.90;;;13.70;;
14776;SDS011;7480;43.124;25.686;2023-11-22T13:53:03;27.33;;;14.77;;
14776;SDS011;7480;43.124;25.686;2023-11-22T13:55:30;25.97;;;14.67;;
14776;SDS011;7480;43.124;25.686;2023-11-22T13:57:58;29.67;;;15.90;;
14776;SDS011;7480;43.124;25.686;2023-11-22T14:00:27;28.37;;;15.53;;
14776;SDS011;7480;43.124;25.686;2023-11-22T14:03:00;26.03;;;14.37;;
14776;SDS011;7480;43.124;25.686;2023-11-22T14:05:35;31.33;;;16.13;;
14776;SDS011;7480;43.124;25.686;2023-11-22T14:08:04;27.63;;;14.87;;
14776;SDS011;7480;43.124;25.686;2023-11-22T14:10:33;25.00;;;15.03;;
14776;SDS011;7480;43.124;25.686;2023-11-22T14:12:59;26.13;;;14.53;;
14776;SDS011;7480;43.124;25.686;2023-11-22T14:15:27;26.40;;;15.00;;
14776;SDS011;7480;43.124;25.686;2023-11-22T14:17:57;27.03;;;14.67;;
14776;SDS011;7480;43.124;25.686;2023-11-22T14:20:24;30.33;;;15.47;;
14776;SDS011;7480;43.124;25.686;2023-11-22T14:22:51;29.20;;;16.23;;
14776;SDS011;7480;43.124;25.686;2023-11-22T14:25:19;21.33;;;15.10;;
14776;SDS011;7480;43.124;25.686;2023-11-22T14:27:47;27.70;;;15.83;;
14776;SDS011;7480;43.124;25.686;2023-11-22T14:30:19;28.77;;;16.87;;
14776;SDS011;7480;43.124;25.686;2023-11-22T14:32:47;30.40;;;16.83;;
14776;SDS011;7480;43.124;25.686;2023-11-22T14:35:15;29.33;;;16.53;;
14776;SDS011;7480;43.124;25.686;2023-11-22T14:37:44;29.87;;;15.77;;